Terminal Aerodrome Forecast
Issued by NWS Wakefield, VA

Home | Current Version | Previous Version | Text Only | Print | Product List | Glossary On
Versions: 1 2 3 4 5 6 7 8 9 10 11 12 13 14 15 16
000
FTUS41 KAKQ 011700
TAFRIC
TAF
KRIC 011725Z 0118/0218 24013KT P6SM FEW045 SCT200
     FM012300 22005KT P6SM SCT120 BKN250
     FM020800 25004KT 6SM HZ FEW200
     FM021300 25007KT P6SM FEW050 SCT250=

USA.gov is the U.S. government's official web portal to all federal, state and local government web resources and services.